Time;durP1;ratioP1;P1;durP2;ratioP2;P2;SDS_P1;SDS_P2;PMS_P1;PMS_P2;Temp;Humidity;BMP_temperature;BMP_pressure;BME280_temperature;BME280_humidity;BME280_pressure;Samples;Min_cycle;Max_cycle;Signal;HPM_P1;HPM_P2
2023/06/04 00:00:08;;;;;;;10.40;5.50;;;;;;;11.08;90.87;97228.81;4951208;28;20043;-51
2023/06/04 00:02:35;;;;;;;8.27;5.05;;;;;;;10.99;91.28;97240.13;4962885;28;20043;-51
2023/06/04 00:05:02;;;;;;;8.35;4.68;;;;;;;10.84;92.72;97246.22;4958459;28;20043;-47
2023/06/04 00:07:28;;;;;;;9.07;4.88;;;;;;;10.88;91.15;97244.66;4958022;28;20043;-49
2023/06/04 00:09:55;;;;;;;8.38;4.95;;;;;;;10.75;92.05;97248.59;4962349;28;20054;-50
2023/06/04 00:12:21;;;;;;;10.90;5.57;;;;;;;10.64;93.04;97239.56;4956479;28;20409;-48
2023/06/04 00:14:48;;;;;;;11.20;4.90;;;;;;;10.70;92.96;97239.59;4956795;28;20053;-51
2023/06/04 00:17:15;;;;;;;8.75;5.15;;;;;;;10.79;91.88;97233.47;4957041;28;20055;-50
2023/06/04 00:19:41;;;;;;;8.35;5.10;;;;;;;10.68;92.29;97245.28;4946878;28;20079;-53
2023/06/04 00:22:08;;;;;;;11.27;5.20;;;;;;;10.63;92.46;97248.75;4961907;28;20182;-52
2023/06/04 00:24:40;;;;;;;10.88;4.50;;;;;;;10.60;93.08;97240.31;4959987;28;20046;-49
2023/06/04 00:27:07;;;;;;;7.32;4.75;;;;;;;10.62;92.64;97235.47;4955417;28;20047;-53
2023/06/04 00:29:34;;;;;;;9.38;5.38;;;;;;;10.54;93.02;97237.56;4959774;28;20557;-53
2023/06/04 00:32:01;;;;;;;10.52;5.38;;;;;;;10.36;94.23;97238.69;4960411;28;20046;-50
2023/06/04 00:34:28;;;;;;;6.95;4.10;;;;;;;10.26;94.69;97244.81;4954054;28;20523;-50
2023/06/04 00:36:55;;;;;;;7.40;4.85;;;;;;;10.25;94.83;97243.16;4960688;28;20105;-49
2023/06/04 00:39:21;;;;;;;10.13;5.80;;;;;;;10.33;94.88;97247.34;4954216;28;20043;-53
2023/06/04 00:41:48;;;;;;;8.68;4.68;;;;;;;10.35;95.09;97247.06;4957865;28;20074;-50
2023/06/04 00:44:14;;;;;;;8.75;4.90;;;;;;;10.09;95.55;97241.34;4960284;28;20074;-52
2023/06/04 00:46:45;;;;;;;8.98;4.85;;;;;;;10.19;96.40;97246.06;4956684;28;20050;-55
2023/06/04 00:49:12;;;;;;;7.68;4.70;;;;;;;10.13;95.76;97247.91;4957558;28;20089;-52
2023/06/04 00:51:39;;;;;;;8.40;4.80;;;;;;;10.12;95.69;97252.50;4957047;28;20043;-49
2023/06/04 00:54:08;;;;;;;8.82;4.80;;;;;;;10.21;95.20;97257.47;4959817;28;20129;-51
2023/06/04 00:56:37;;;;;;;7.13;4.63;;;;;;;10.18;95.19;97261.50;4954141;28;20488;-52
2023/06/04 00:59:06;;;;;;;9.32;5.05;;;;;;;10.27;93.92;97256.44;4954323;28;20502;-53
2023/06/04 01:02:12;;;;;;;12.75;4.38;;;;;;;9.85;97.23;97258.63;4958847;28;20128;-52
2023/06/04 01:04:59;;;;;;;9.02;5.07;;;;;;;9.85;96.80;97261.34;4904448;29;20125;-50
2023/06/04 01:07:28;;;;;;;8.02;4.88;;;;;;;9.67;97.58;97267.03;4952684;28;20102;-50
2023/06/04 01:09:55;;;;;;;8.75;4.88;;;;;;;9.66;98.04;97263.50;4952830;28;20391;-49
2023/06/04 01:12:23;;;;;;;8.05;5.18;;;;;;;9.74;97.36;97265.78;4960680;28;20042;-50
2023/06/04 01:14:49;;;;;;;10.45;4.70;;;;;;;9.78;97.36;97263.44;4962058;28;20049;-53
2023/06/04 01:17:23;;;;;;;9.98;4.90;;;;;;;9.81;96.42;97259.41;4977641;28;20423;-52
2023/06/04 01:20:04;;;;;;;8.95;5.28;;;;;;;9.46;98.91;97264.88;4954290;28;20134;-51
2023/06/04 01:22:59;;;;;;;10.57;5.10;;;;;;;9.49;98.97;97271.66;4959327;28;20130;-48
2023/06/04 01:25:39;;;;;;;9.13;5.13;;;;;;;9.59;97.96;97281.81;4955093;28;20113;-49
2023/06/04 01:28:08;;;;;;;8.85;5.78;;;;;;;9.62;98.15;97274.00;4958154;28;21689;-51
2023/06/04 01:30:36;;;;;;;10.55;4.82;;;;;;;9.35;98.69;97269.31;4956457;28;20062;-55
2023/06/04 01:33:03;;;;;;;9.57;4.57;;;;;;;9.30;99.98;97261.13;4952309;28;20411;-53
2023/06/04 01:35:33;;;;;;;9.35;4.88;;;;;;;9.37;99.79;97263.66;4956210;28;20062;-48
2023/06/04 01:37:59;;;;;;;10.38;4.88;;;;;;;9.40;99.12;97260.44;4955191;28;20053;-51
2023/06/04 01:40:26;;;;;;;9.98;4.72;;;;;;;9.36;98.79;97262.00;4958553;28;20761;-50
2023/06/04 01:42:53;;;;;;;8.00;4.68;;;;;;;9.23;99.35;97260.47;4955889;28;20067;-46
2023/06/04 01:45:22;;;;;;;7.38;5.05;;;;;;;9.02;100.00;97257.41;4958543;28;20740;-49
2023/06/04 01:47:49;;;;;;;9.20;5.18;;;;;;;9.02;100.00;97264.69;4954363;28;20105;-51
2023/06/04 01:50:16;;;;;;;7.85;4.68;;;;;;;9.18;100.00;97263.88;4948279;28;20043;-48
2023/06/04 01:52:43;;;;;;;8.82;4.78;;;;;;;9.27;99.82;97266.19;4964839;28;20046;-50
2023/06/04 01:55:13;;;;;;;7.65;4.70;;;;;;;9.23;100.00;97272.09;4955259;28;20416;-49
2023/06/04 01:57:40;;;;;;;8.90;4.55;;;;;;;9.32;99.51;97266.28;4954362;28;20514;-51
2023/06/04 02:00:10;;;;;;;8.32;5.00;;;;;;;9.29;99.36;97266.75;4971553;28;20045;-47
2023/06/04 02:02:41;;;;;;;7.97;4.35;;;;;;;9.28;99.25;97265.13;4957829;28;20582;-47
2023/06/04 02:05:09;;;;;;;7.35;4.53;;;;;;;9.16;98.96;97267.91;4954419;28;20121;-49
2023/06/04 02:07:40;;;;;;;7.57;4.78;;;;;;;8.85;100.00;97270.91;4970711;28;20111;-50
2023/06/04 02:10:09;;;;;;;9.10;4.63;;;;;;;8.75;100.00;97268.03;4970120;28;20510;-49
2023/06/04 02:12:40;;;;;;;8.43;4.60;;;;;;;9.01;100.00;97272.00;4972126;28;20481;-53
2023/06/04 02:15:10;;;;;;;6.05;4.15;;;;;;;8.86;100.00;97277.94;4953878;28;20521;-52
2023/06/04 02:17:42;;;;;;;7.65;4.55;;;;;;;8.57;100.00;97276.09;4960030;28;20121;-46
2023/06/04 02:20:09;;;;;;;8.32;5.10;;;;;;;8.53;100.00;97274.94;4956694;28;20036;-49
2023/06/04 02:22:37;;;;;;;11.65;5.78;;;;;;;8.67;100.00;97280.03;4961527;28;20066;-50
2023/06/04 02:25:05;;;;;;;7.03;4.47;;;;;;;8.83;100.00;97278.44;4949152;28;20635;-49
2023/06/04 02:27:32;;;;;;;11.13;5.32;;;;;;;8.66;100.00;97278.41;4955947;28;22004;-47
2023/06/04 02:29:58;;;;;;;8.65;5.22;;;;;;;8.70;100.00;97276.88;4952229;28;20054;-51
2023/06/04 02:32:25;;;;;;;10.10;4.82;;;;;;;8.89;100.00;97274.78;4960176;28;20138;-49
2023/06/04 02:34:51;;;;;;;8.13;4.85;;;;;;;8.77;100.00;97274.00;4960942;28;20470;-50
2023/06/04 02:37:18;;;;;;;8.52;4.40;;;;;;;8.68;100.00;97281.66;4955475;28;20694;-49
2023/06/04 02:39:45;;;;;;;8.10;4.40;;;;;;;8.69;100.00;97283.31;4964875;28;20075;-50
2023/06/04 02:42:11;;;;;;;8.95;5.22;;;;;;;8.75;100.00;97282.34;4962337;28;20043;-47
2023/06/04 02:44:38;;;;;;;12.02;5.25;;;;;;;8.82;100.00;97277.59;4959067;28;20094;-51
2023/06/04 02:47:04;;;;;;;8.43;4.68;;;;;;;8.77;100.00;97282.91;4958761;28;20045;-50
2023/06/04 02:49:31;;;;;;;6.57;4.50;;;;;;;8.73;100.00;97281.75;4965656;28;20129;-48
2023/06/04 02:51:58;;;;;;;7.72;4.40;;;;;;;8.81;100.00;97277.88;4964929;28;20047;-51
2023/06/04 02:54:24;;;;;;;9.02;4.43;;;;;;;8.88;100.00;97283.09;4961660;28;20046;-48
2023/06/04 02:56:51;;;;;;;8.18;4.40;;;;;;;8.85;100.00;97279.03;4959537;28;20047;-53
2023/06/04 02:59:17;;;;;;;9.02;4.30;;;;;;;8.91;100.00;97286.13;4952293;28;20039;-54
2023/06/04 03:01:44;;;;;;;6.93;4.68;;;;;;;8.64;100.00;97275.94;4958763;28;20138;-52
2023/06/04 03:04:15;;;;;;;7.00;4.00;;;;;;;8.48;100.00;97277.50;4960221;28;20097;-53
2023/06/04 03:06:46;;;;;;;10.30;3.72;;;;;;;8.55;100.00;97280.09;4962747;28;20636;-51
2023/06/04 03:09:13;;;;;;;7.17;4.50;;;;;;;8.46;100.00;97280.44;4955230;28;20054;-55
2023/06/04 03:11:40;;;;;;;6.82;3.95;;;;;;;8.48;100.00;97285.59;4962624;28;20129;-51
2023/06/04 03:14:07;;;;;;;8.75;4.15;;;;;;;8.49;100.00;97289.09;4954377;28;20071;-52
2023/06/04 03:16:39;;;;;;;8.25;4.50;;;;;;;8.61;100.00;97286.38;4960568;28;20558;-47
2023/06/04 03:19:06;;;;;;;8.23;4.03;;;;;;;8.91;99.46;97288.84;4959718;28;20102;-53
2023/06/04 03:21:32;;;;;;;6.47;3.95;;;;;;;8.76;99.65;97294.78;4958074;28;20046;-50
2023/06/04 03:23:59;;;;;;;8.63;4.38;;;;;;;8.47;100.00;97286.66;4961598;28;20571;-51
2023/06/04 03:26:26;;;;;;;8.25;4.15;;;;;;;8.43;100.00;97289.00;4959605;28;20126;-52
2023/06/04 03:28:53;;;;;;;6.35;3.60;;;;;;;8.45;100.00;97297.69;4978618;28;20054;-50
2023/06/04 03:31:21;;;;;;;7.55;3.63;;;;;;;8.35;100.00;97299.34;4963129;28;20459;-50
2023/06/04 03:33:48;;;;;;;6.18;3.70;;;;;;;8.36;100.00;97295.63;4962887;28;20058;-49
2023/06/04 03:36:16;;;;;;;7.07;4.10;;;;;;;8.23;100.00;97294.00;4950785;28;20057;-49
2023/06/04 03:38:45;;;;;;;9.15;4.15;;;;;;;8.30;100.00;97294.69;4964438;28;20110;-48
2023/06/04 03:41:12;;;;;;;8.00;4.03;;;;;;;8.51;100.00;97295.09;4972787;28;20418;-51
2023/06/04 03:43:38;;;;;;;6.28;3.95;;;;;;;8.52;100.00;97296.72;4957013;28;20082;-46
2023/06/04 03:46:07;;;;;;;6.80;4.13;;;;;;;8.64;100.00;97294.84;4955124;28;20605;-49
2023/06/04 03:48:35;;;;;;;11.32;4.32;;;;;;;8.66;99.29;97300.81;4957039;28;20035;-51
2023/06/04 03:51:02;;;;;;;8.80;4.22;;;;;;;8.46;100.00;97301.19;4954952;28;20070;-51
2023/06/04 03:53:28;;;;;;;7.25;4.30;;;;;;;8.48;100.00;97298.28;4953763;28;20043;-53
2023/06/04 03:55:55;;;;;;;7.07;4.15;;;;;;;8.43;100.00;97305.22;4955695;28;20054;-52
2023/06/04 03:58:22;;;;;;;8.60;4.00;;;;;;;8.52;100.00;97304.81;4974404;28;20141;-54
2023/06/04 04:00:50;;;;;;;6.50;3.85;;;;;;;8.58;100.00;97304.72;4956144;28;20046;-53
2023/06/04 04:03:18;;;;;;;6.85;3.70;;;;;;;8.57;100.00;97308.47;4957381;28;20043;-50
2023/06/04 04:05:45;;;;;;;9.18;4.45;;;;;;;8.49;100.00;97305.31;4952121;28;20043;-52
2023/06/04 04:08:16;;;;;;;6.85;3.60;;;;;;;8.79;100.00;97309.66;4977375;28;20078;-49
2023/06/04 04:10:43;;;;;;;8.02;4.20;;;;;;;8.74;99.26;97312.28;4960056;28;20070;-47
2023/06/04 04:13:10;;;;;;;9.38;3.95;;;;;;;8.71;99.36;97308.19;4969853;28;20430;-50
2023/06/04 04:15:38;;;;;;;7.47;3.80;;;;;;;8.63;100.00;97314.81;4959434;28;20057;-52
2023/06/04 04:18:08;;;;;;;6.70;3.40;;;;;;;8.69;100.00;97311.13;4960278;28;20046;-48
2023/06/04 04:20:35;;;;;;;5.68;3.50;;;;;;;8.68;100.00;97320.28;4952007;28;20047;-50
2023/06/04 04:23:06;;;;;;;6.07;3.40;;;;;;;8.58;100.00;97323.59;4955458;28;20043;-48
2023/06/04 04:25:34;;;;;;;6.43;3.28;;;;;;;8.67;100.00;97324.03;4977971;28;20161;-49
2023/06/04 04:28:06;;;;;;;6.68;3.05;;;;;;;8.75;99.12;97322.84;4961701;28;20062;-52
2023/06/04 04:30:34;;;;;;;7.45;3.20;;;;;;;9.01;97.76;97322.47;4951788;28;20039;-48
2023/06/04 04:33:04;;;;;;;5.68;2.90;;;;;;;8.98;97.47;97326.50;4957388;28;20133;-47
2023/06/04 04:35:36;;;;;;;5.70;2.92;;;;;;;9.10;97.15;97334.53;4958075;28;20066;-46
2023/06/04 04:38:04;;;;;;;5.20;3.35;;;;;;;9.10;97.33;97334.53;4956726;28;21405;-50
2023/06/04 04:40:37;;;;;;;5.93;2.95;;;;;;;9.34;95.82;97337.94;4960249;28;20034;-49
2023/06/04 04:43:05;;;;;;;7.43;3.30;;;;;;;9.47;94.64;97331.38;4957364;28;20130;-50
2023/06/04 04:45:32;;;;;;;5.63;2.92;;;;;;;9.44;95.81;97339.16;4956148;28;20138;-52
2023/06/04 04:48:00;;;;;;;7.53;3.70;;;;;;;9.32;98.50;97336.53;4953433;28;20043;-50
2023/06/04 04:50:27;;;;;;;5.45;2.97;;;;;;;9.40;96.51;97344.22;4957019;28;20541;-50
2023/06/04 04:52:54;;;;;;;6.43;3.00;;;;;;;9.49;96.52;97334.66;4959919;28;20497;-52
2023/06/04 04:55:22;;;;;;;8.23;3.80;;;;;;;9.59;94.70;97333.16;4959403;28;20039;-50
2023/06/04 04:57:50;;;;;;;4.88;2.67;;;;;;;9.82;93.45;97336.75;4957702;28;20604;-51
2023/06/04 05:00:19;;;;;;;4.97;2.70;;;;;;;10.01;92.86;97340.00;4955720;28;20038;-51
2023/06/04 05:02:48;;;;;;;5.45;2.80;;;;;;;10.12;91.52;97341.78;4954002;28;20047;-52
2023/06/04 05:05:15;;;;;;;5.18;2.90;;;;;;;10.27;91.02;97335.75;4948563;28;20519;-51
2023/06/04 05:07:43;;;;;;;6.20;2.72;;;;;;;10.36;92.84;97346.16;4958366;28;20051;-52
2023/06/04 05:10:10;;;;;;;6.03;2.90;;;;;;;10.50;91.75;97341.19;4960676;28;20042;-49
2023/06/04 05:12:37;;;;;;;5.82;2.42;;;;;;;10.62;86.04;97339.16;4941980;28;20043;-54
2023/06/04 05:15:07;;;;;;;5.82;2.30;;;;;;;10.85;76.83;97339.16;4957695;28;20113;-50
2023/06/04 05:17:35;;;;;;;5.05;2.20;;;;;;;11.12;75.19;97336.44;4957359;28;20050;-52
2023/06/04 05:20:11;;;;;;;5.57;2.22;;;;;;;11.33;75.32;97350.19;4951359;28;20138;-46
2023/06/04 05:22:43;;;;;;;4.28;1.98;;;;;;;11.38;73.83;97349.41;4951489;28;20047;-49
2023/06/04 05:25:09;;;;;;;5.45;2.40;;;;;;;11.60;73.11;97345.81;4950761;28;20035;-49
2023/06/04 05:27:37;;;;;;;3.53;1.92;;;;;;;11.68;72.61;97358.88;4960814;28;20164;-53
2023/06/04 05:30:06;;;;;;;6.55;1.77;;;;;;;11.83;68.75;97359.00;4959194;28;20055;-52
2023/06/04 05:32:33;;;;;;;5.25;2.03;;;;;;;12.00;66.56;97354.47;4959580;28;20517;-54
2023/06/04 05:35:00;;;;;;;4.38;1.90;;;;;;;12.20;65.45;97365.50;4958156;28;20071;-47
2023/06/04 05:37:30;;;;;;;4.63;2.22;;;;;;;12.34;65.14;97355.00;4956280;28;20043;-47
2023/06/04 05:39:57;;;;;;;6.20;2.70;;;;;;;12.47;64.84;97363.72;4961785;28;20047;-49
2023/06/04 05:42:24;;;;;;;4.60;2.17;;;;;;;12.61;63.18;97366.78;4958695;28;20043;-50
2023/06/04 05:44:51;;;;;;;7.47;1.75;;;;;;;12.69;62.84;97366.28;4962447;28;20041;-50
2023/06/04 05:47:20;;;;;;;4.90;1.65;;;;;;;12.76;62.70;97368.75;4958263;28;20039;-50
2023/06/04 05:49:47;;;;;;;6.40;1.85;;;;;;;12.81;62.40;97363.31;4959167;28;20623;-52
2023/06/04 05:52:14;;;;;;;4.07;1.75;;;;;;;12.89;62.98;97364.69;4963204;28;20130;-52
2023/06/04 05:54:42;;;;;;;3.85;1.85;;;;;;;12.82;61.98;97362.22;4958141;28;20054;-50
2023/06/04 05:57:09;;;;;;;3.97;1.80;;;;;;;12.84;61.77;97368.22;4960725;28;20039;-48
2023/06/04 05:59:35;;;;;;;3.85;1.70;;;;;;;12.97;62.34;97361.47;4961121;28;20054;-48
2023/06/04 06:02:06;;;;;;;5.22;2.20;;;;;;;13.09;62.34;97365.84;4957411;28;20051;-64
2023/06/04 06:04:32;;;;;;;4.60;1.65;;;;;;;13.12;62.05;97368.84;4971927;28;20576;-64
2023/06/04 06:06:59;;;;;;;4.07;1.70;;;;;;;13.20;62.06;97374.84;4947905;28;20053;-63
2023/06/04 06:09:26;;;;;;;6.93;2.22;;;;;;;13.27;62.54;97381.66;4959019;28;20051;-64
2023/06/04 06:11:53;;;;;;;5.00;1.90;;;;;;;13.38;62.52;97377.03;4956019;28;20056;-64
2023/06/04 06:14:20;;;;;;;7.95;2.28;;;;;;;13.48;61.87;97378.16;4953196;28;20126;-64
2023/06/04 06:16:47;;;;;;;5.30;2.25;;;;;;;13.60;62.71;97373.28;4976352;28;20090;-64
2023/06/04 06:19:14;;;;;;;5.80;1.67;;;;;;;13.69;62.00;97379.00;4977049;28;20573;-64
2023/06/04 06:21:40;;;;;;;5.18;1.80;;;;;;;13.71;61.28;97376.00;4954951;28;20043;-64
2023/06/04 06:24:07;;;;;;;4.38;1.58;;;;;;;13.74;60.78;97379.00;4959642;28;20574;-64
2023/06/04 06:26:34;;;;;;;4.07;1.92;;;;;;;13.91;60.12;97388.78;4964728;28;20575;-64
2023/06/04 06:29:02;;;;;;;4.38;1.80;;;;;;;14.03;59.85;97389.31;4981268;28;20560;-64
2023/06/04 06:31:30;;;;;;;4.07;1.73;;;;;;;14.08;58.26;97387.69;4962279;28;20600;-64
2023/06/04 06:33:57;;;;;;;4.22;1.50;;;;;;;14.22;59.48;97382.50;4956442;28;20035;-63
2023/06/04 06:36:23;;;;;;;4.93;2.00;;;;;;;14.30;59.00;97392.81;4962191;28;20063;-65
2023/06/04 06:38:50;;;;;;;3.88;1.85;;;;;;;14.28;58.93;97390.38;4962422;28;20047;-64
2023/06/04 06:41:17;;;;;;;4.82;1.60;;;;;;;14.24;59.06;97389.28;4966305;28;20046;-64
2023/06/04 06:43:43;;;;;;;4.22;1.85;;;;;;;14.30;57.74;97396.34;4966152;28;20062;-64
2023/06/04 06:46:10;;;;;;;5.72;2.28;;;;;;;14.34;58.31;97396.59;4959309;28;20814;-64
2023/06/04 06:48:36;;;;;;;5.28;1.70;;;;;;;14.44;58.42;97404.75;4957260;28;20055;-64
2023/06/04 06:51:03;;;;;;;4.28;1.77;;;;;;;14.67;56.43;97399.78;4964615;28;20066;-64
2023/06/04 06:53:29;;;;;;;5.03;2.20;;;;;;;14.81;56.13;97404.66;4961288;28;20505;-64
2023/06/04 06:55:56;;;;;;;4.63;1.88;;;;;;;14.92;55.29;97400.81;4959564;28;20602;-63
2023/06/04 06:58:23;;;;;;;4.82;1.90;;;;;;;14.97;55.63;97402.69;4961626;28;20077;-64
2023/06/04 07:00:49;;;;;;;3.42;1.70;;;;;;;15.16;55.26;97393.88;4963510;28;20046;-64
2023/06/04 07:03:16;;;;;;;5.22;1.98;;;;;;;15.26;54.01;97395.72;4958678;28;20043;-63
2023/06/04 07:05:43;;;;;;;4.18;1.73;;;;;;;15.47;54.43;97397.22;4965701;28;20061;-64
2023/06/04 07:08:09;;;;;;;4.53;2.10;;;;;;;15.55;53.84;97400.47;4965476;28;20043;-64
2023/06/04 07:10:36;;;;;;;5.32;2.20;;;;;;;15.67;54.15;97403.63;4957527;28;21219;-64
2023/06/04 07:13:03;;;;;;;3.55;1.63;;;;;;;15.80;55.12;97406.78;4961832;28;20047;-64
2023/06/04 07:15:30;;;;;;;6.22;1.90;;;;;;;15.95;56.00;97403.97;4962514;28;20042;-64
2023/06/04 07:17:56;;;;;;;4.30;2.00;;;;;;;16.16;53.87;97406.53;4959201;28;20741;-64
2023/06/04 07:20:23;;;;;;;3.97;2.00;;;;;;;16.06;53.47;97412.91;4965346;28;20042;-63
2023/06/04 07:22:49;;;;;;;6.10;2.63;;;;;;;16.20;54.59;97406.75;4950506;28;20039;-63
2023/06/04 07:25:16;;;;;;;5.07;1.88;;;;;;;16.43;53.71;97413.34;4957487;28;20043;-64
2023/06/04 07:27:43;;;;;;;5.28;1.92;;;;;;;16.44;53.87;97409.50;4958405;28;20072;-64
2023/06/04 07:30:10;;;;;;;7.57;2.63;;;;;;;16.45;53.25;97402.97;4966085;28;20456;-63
2023/06/04 07:32:36;;;;;;;3.97;2.00;;;;;;;16.48;52.68;97407.81;4959058;28;21010;-64
2023/06/04 07:35:03;;;;;;;4.55;2.05;;;;;;;16.60;52.83;97403.88;4960203;28;20085;-63
2023/06/04 07:37:30;;;;;;;4.68;2.08;;;;;;;16.55;52.80;97402.00;4951632;28;20035;-63
2023/06/04 07:39:56;;;;;;;5.18;1.95;;;;;;;16.54;53.08;97402.34;4958165;28;20043;-63
2023/06/04 07:42:23;;;;;;;3.83;2.00;;;;;;;16.51;53.23;97403.69;4957829;28;20417;-64
2023/06/04 07:44:49;;;;;;;4.97;1.90;;;;;;;16.57;53.77;97402.56;4962463;28;20071;-64
2023/06/04 07:47:16;;;;;;;3.92;1.98;;;;;;;16.59;53.41;97405.78;4957400;28;20039;-63
2023/06/04 07:49:42;;;;;;;4.45;2.13;;;;;;;16.61;53.60;97398.13;4960903;28;20051;-64
2023/06/04 07:52:27;;;;;;;4.18;1.70;;;;;;;16.47;53.64;97400.75;4959544;28;20129;-64
2023/06/04 07:54:53;;;;;;;4.25;2.03;;;;;;;16.49;54.46;97403.19;4958538;28;20047;-64
2023/06/04 07:57:20;;;;;;;5.35;2.10;;;;;;;16.54;53.99;97402.34;4955457;28;20462;-64
2023/06/04 07:59:46;;;;;;;3.88;2.13;;;;;;;16.74;53.83;97402.06;4956350;28;20070;-64
2023/06/04 08:02:14;;;;;;;4.75;1.92;;;;;;;16.85;53.22;97394.56;4965998;28;20054;-64
2023/06/04 08:04:41;;;;;;;4.93;1.95;;;;;;;16.90;53.59;97390.97;4956428;28;20133;-64
2023/06/04 08:07:07;;;;;;;4.30;1.90;;;;;;;17.04;53.60;97396.53;4961394;28;20105;-64
2023/06/04 08:09:34;;;;;;;3.72;1.85;;;;;;;17.12;52.47;97392.34;4960688;28;20473;-64
2023/06/04 08:12:01;;;;;;;7.13;2.20;;;;;;;17.26;53.25;97384.22;4956703;28;20043;-64
2023/06/04 08:14:27;;;;;;;3.85;1.85;;;;;;;17.48;51.74;97380.91;4957315;28;20071;-63
2023/06/04 08:16:54;;;;;;;5.07;2.05;;;;;;;17.55;50.75;97383.25;4959164;28;20049;-64
2023/06/04 08:19:21;;;;;;;3.92;1.77;;;;;;;17.71;50.90;97385.72;4960937;28;20510;-64
2023/06/04 08:21:47;;;;;;;5.00;1.90;;;;;;;17.79;50.42;97387.78;4959699;28;20050;-64
2023/06/04 08:24:14;;;;;;;5.85;1.95;;;;;;;17.91;50.47;97382.66;4958993;28;20054;-64
2023/06/04 08:26:41;;;;;;;5.43;1.90;;;;;;;17.99;50.36;97385.84;4961630;28;20043;-64
2023/06/04 08:29:08;;;;;;;6.20;1.90;;;;;;;18.12;49.72;97384.25;4958857;28;20062;-64
2023/06/04 08:31:35;;;;;;;5.15;2.05;;;;;;;18.16;49.65;97391.59;4952765;28;20039;-64
2023/06/04 08:34:05;;;;;;;4.78;1.60;;;;;;;18.30;49.95;97394.34;4951880;28;20047;-64
2023/06/04 08:36:32;;;;;;;4.43;2.00;;;;;;;18.43;50.13;97395.47;4966458;28;20049;-64
2023/06/04 08:38:59;;;;;;;4.50;2.15;;;;;;;18.43;49.36;97395.47;4963283;28;20580;-64
2023/06/04 08:41:43;;;;;;;4.65;2.05;;;;;;;18.55;49.49;97388.69;4956608;28;20040;-63
2023/06/04 08:44:10;;;;;;;3.67;2.00;;;;;;;18.68;49.25;97398.00;4959918;28;20105;-65
2023/06/04 08:46:39;;;;;;;4.35;2.05;;;;;;;18.68;48.90;97396.09;4955524;28;20073;-64
2023/06/04 08:49:06;;;;;;;5.13;1.60;;;;;;;18.69;48.83;97399.66;4954441;28;20042;-64
2023/06/04 08:51:37;;;;;;;6.63;1.92;;;;;;;18.78;48.47;97392.34;4959600;28;20122;-64
2023/06/04 08:54:05;;;;;;;3.92;1.95;;;;;;;18.97;48.91;97399.63;4958623;28;20043;-65
2023/06/04 08:56:33;;;;;;;6.32;2.00;;;;;;;18.96;47.38;97385.13;4957532;28;20598;-64
2023/06/04 08:59:06;;;;;;;6.35;2.55;;;;;;;19.13;47.18;97386.44;4958356;28;20039;-64
2023/06/04 09:01:34;;;;;;;5.28;1.90;;;;;;;19.14;46.92;97398.22;4955001;28;20711;-64
2023/06/04 09:04:05;;;;;;;4.35;2.13;;;;;;;19.22;45.76;97401.06;4959262;28;20431;-64
2023/06/04 09:06:32;;;;;;;8.07;2.60;;;;;;;19.35;45.76;97398.59;4954628;28;20042;-64
2023/06/04 09:09:03;;;;;;;7.03;2.00;;;;;;;19.34;46.58;97408.75;4958586;28;20047;-64
2023/06/04 09:11:35;;;;;;;3.75;1.65;;;;;;;19.43;46.10;97408.00;4954369;28;20039;-64
2023/06/04 09:14:07;;;;;;;4.10;1.65;;;;;;;19.47;45.26;97414.50;4956914;28;20031;-65
2023/06/04 09:16:50;;;;;;;3.55;1.70;;;;;;;19.57;44.66;97413.47;4958504;28;20126;-65
2023/06/04 09:19:18;;;;;;;3.17;1.80;;;;;;;19.61;44.54;97411.72;4962308;28;20425;-65
2023/06/04 09:21:52;;;;;;;6.25;2.42;;;;;;;19.69;44.03;97412.91;4957502;28;20035;-63
2023/06/04 09:24:20;;;;;;;4.03;1.95;;;;;;;19.66;43.83;97417.09;4956110;28;20117;-64
2023/06/04 09:26:48;;;;;;;7.47;2.15;;;;;;;19.66;43.56;97417.09;4960151;28;20051;-64
2023/06/04 09:29:16;;;;;;;4.40;1.85;;;;;;;19.65;43.28;97414.66;4955076;28;20066;-65
2023/06/04 09:31:47;;;;;;;4.75;2.15;;;;;;;19.83;43.00;97418.34;4957914;28;20126;-64
2023/06/04 09:34:14;;;;;;;5.00;1.83;;;;;;;19.86;42.65;97421.28;4956213;28;20605;-64
2023/06/04 09:36:41;;;;;;;5.35;2.25;;;;;;;20.04;42.07;97418.69;4952580;28;20047;-64
2023/06/04 09:39:17;;;;;;;5.47;1.80;;;;;;;20.17;43.41;97419.75;4954166;28;20047;-64
2023/06/04 09:41:44;;;;;;;5.18;1.90;;;;;;;20.35;43.16;97408.84;4952451;28;20122;-65
2023/06/04 09:44:11;;;;;;;6.85;2.13;;;;;;;20.31;43.00;97408.66;4961879;28;20137;-65
2023/06/04 09:46:38;;;;;;;3.97;1.98;;;;;;;20.47;42.78;97419.25;4957649;28;20047;-64
2023/06/04 09:49:05;;;;;;;4.00;2.00;;;;;;;20.44;42.05;97417.13;4958004;28;20047;-64
2023/06/04 09:51:32;;;;;;;4.22;2.45;;;;;;;20.44;41.68;97403.38;4957754;28;20553;-64
2023/06/04 09:54:02;;;;;;;6.07;3.00;;;;;;;20.52;41.98;97411.66;4952370;28;20039;-64
2023/06/04 09:56:29;;;;;;;4.10;1.73;;;;;;;20.71;42.09;97412.56;4957138;28;20042;-64
2023/06/04 09:59:00;;;;;;;6.32;2.15;;;;;;;20.75;41.37;97413.56;4956871;28;20478;-65
2023/06/04 10:01:28;;;;;;;5.00;2.00;;;;;;;20.60;41.42;97414.78;4952592;28;20043;-64
2023/06/04 10:03:58;;;;;;;4.47;2.08;;;;;;;20.66;40.72;97410.75;4948728;28;20070;-64
2023/06/04 10:06:26;;;;;;;4.18;2.00;;;;;;;20.79;41.05;97409.03;4959902;28;20043;-63
2023/06/04 10:08:57;;;;;;;4.72;2.47;;;;;;;20.81;40.73;97406.75;4951926;28;20046;-65
2023/06/04 10:11:34;;;;;;;4.00;1.60;;;;;;;20.94;40.69;97409.75;4955968;28;20039;-65
2023/06/04 10:14:04;;;;;;;4.05;1.92;;;;;;;21.02;40.73;97408.94;4957156;28;20054;-64
2023/06/04 10:16:32;;;;;;;5.23;2.10;;;;;;;21.07;39.85;97406.03;4955189;28;20039;-65
2023/06/04 10:19:00;;;;;;;4.43;2.15;;;;;;;21.11;39.52;97398.78;4963363;28;20936;-65
2023/06/04 10:21:29;;;;;;;8.38;2.33;;;;;;;21.07;39.89;97397.00;4961285;28;20050;-64
2023/06/04 10:23:56;;;;;;;5.35;2.17;;;;;;;21.09;40.25;97394.72;4955378;28;20047;-64
2023/06/04 10:26:22;;;;;;;5.45;2.20;;;;;;;21.34;39.96;97395.88;4954135;28;20039;-64
2023/06/04 10:28:50;;;;;;;4.38;2.10;;;;;;;21.56;38.04;97394.91;4960964;28;20130;-64
2023/06/04 10:31:17;;;;;;;8.18;2.55;;;;;;;21.68;39.17;97394.25;4961198;28;20126;-64
2023/06/04 10:33:44;;;;;;;5.60;2.38;;;;;;;21.70;38.21;97389.25;4959862;28;20100;-65
2023/06/04 10:36:18;;;;;;;4.78;2.30;;;;;;;21.66;37.99;97392.97;4955356;28;20129;-65
2023/06/04 10:38:49;;;;;;;6.63;2.40;;;;;;;21.54;38.57;97391.69;4959823;28;20418;-65
2023/06/04 10:41:17;;;;;;;5.97;2.20;;;;;;;21.55;38.58;97382.28;4962353;28;20054;-65
2023/06/04 10:43:49;;;;;;;4.07;2.10;;;;;;;21.50;38.02;97382.47;4958749;28;20049;-64
2023/06/04 10:46:18;;;;;;;8.75;2.42;;;;;;;21.54;38.27;97393.63;4957742;28;20634;-65
2023/06/04 10:48:52;;;;;;;4.47;2.10;;;;;;;21.82;37.74;97382.31;4952700;28;20054;-64
2023/06/04 10:51:32;;;;;;;4.85;2.33;;;;;;;21.79;37.04;97388.47;4953515;28;20050;-64
2023/06/04 10:54:01;;;;;;;7.95;2.35;;;;;;;21.77;37.71;97388.78;4957551;28;20043;-64
2023/06/04 10:56:32;;;;;;;5.00;2.15;;;;;;;21.88;37.43;97389.25;4957847;28;20434;-65
2023/06/04 10:59:00;;;;;;;4.80;2.30;;;;;;;21.93;36.98;97386.31;4956081;28;20039;-65
2023/06/04 11:01:28;;;;;;;4.63;2.20;;;;;;;22.07;36.55;97379.81;4956542;28;20046;-64
2023/06/04 11:03:55;;;;;;;3.85;2.00;;;;;;;22.02;36.05;97385.50;4954085;28;20043;-65
2023/06/04 11:06:23;;;;;;;4.40;2.15;;;;;;;21.90;36.22;97383.44;4961117;28;20034;-65
2023/06/04 11:08:49;;;;;;;4.78;2.35;;;;;;;22.12;36.52;97392.63;4956659;28;20071;-64
2023/06/04 11:11:16;;;;;;;6.63;2.00;;;;;;;22.11;35.82;97380.78;4957248;28;20126;-64
2023/06/04 11:13:43;;;;;;;4.20;2.10;;;;;;;22.11;36.45;97379.97;4953804;28;20121;-64
2023/06/04 11:16:17;;;;;;;5.22;2.13;;;;;;;22.08;35.76;97381.44;4958570;28;20067;-64
2023/06/04 11:18:54;;;;;;;4.45;2.10;;;;;;;22.30;36.24;97374.88;4955577;28;20089;-64
2023/06/04 11:21:21;;;;;;;4.88;2.15;;;;;;;22.28;36.53;97381.88;4964142;28;20046;-64
2023/06/04 11:23:48;;;;;;;5.10;2.10;;;;;;;22.28;35.96;97381.88;4957295;28;20042;-65
2023/06/04 11:26:14;;;;;;;4.07;2.08;;;;;;;22.48;35.75;97383.91;4960703;28;20086;-65
2023/06/04 11:28:42;;;;;;;4.22;1.98;;;;;;;22.47;35.78;97385.06;4955759;28;20580;-65
2023/06/04 11:31:09;;;;;;;5.00;2.20;;;;;;;22.53;35.56;97380.16;4962974;28;20046;-64
2023/06/04 11:33:46;;;;;;;4.70;2.33;;;;;;;22.68;35.56;97378.84;4960588;28;20042;-64
2023/06/04 11:36:25;;;;;;;4.68;2.25;;;;;;;22.80;35.43;97388.34;4959484;28;20117;-64
2023/06/04 11:38:55;;;;;;;7.82;2.15;;;;;;;22.96;35.04;97380.31;4954022;28;20772;-64